^^
Station Historical Data
Daily Summary for September 6, 2017 Units:  English    Metric   Both
« Previous Day
Next Day »
Daily Weekly Monthly Yearly Custom
  High: Low: Average:
Temperature: 67.3 °F 59.3 °F 63.1 °F
Dew Point: 66.2 °F 58.0 °F 61.6 °F
Humidity: 97% 92% 95%
Wind Speed: 3.0mph 0.0mph 0.4mph
Wind Gust: 12.0mph - -
Wind- - WSW
Pressure: 29.92 in 29.81 in -
Precipitation: 0.55 in    
Historical Graphs
 
 
Tabular Data for September 6, 2017
Time Temperature Dew Point Pressure Wind Wind Speed Wind Gust Humidity Rainfall Rate (Hourly) Conditions
00:00 67.2 °F 65.1 °F 29.83 in Calm     93% 0.00 in RA
00:15 66.9 °F 65.1 °F 29.83 in Calm   2.0 mph 94% 0.00 in FEW
00:31 66.9 °F 65.1 °F 29.83 in Calm   2.0 mph 94% 0.00 in FEW
00:45 66.8 °F 65.0 °F 29.83 in Calm   1.0 mph 94% 0.00 in FEW
01:00 66.7 °F 64.9 °F 29.84 in Calm   2.0 mph 94% 0.00 in FEW
01:15 66.8 °F 65.1 °F 29.84 in Calm   1.0 mph 94% 0.00 in FEW
01:30 67.0 °F 64.9 °F 29.84 in Calm   3.0 mph 93% 0.00 in FEW
01:45 67.1 °F 65.0 °F 29.84 in Calm   3.0 mph 93% 0.00 in FEW
02:00 67.2 °F 65.1 °F 29.84 in Calm     93% 0.00 in FEW
02:15 67.1 °F 65.0 °F 29.85 in Calm   2.0 mph 93% 0.00 in BKN
02:30 67.3 °F 65.2 °F 29.85 in Calm   2.0 mph 93% 0.00 in BKN
03:00 67.2 °F 65.1 °F 29.83 in Calm   1.0 mph 93% 0.00 in BKN
03:15 67.1 °F 65.3 °F 29.82 in Calm     94% 0.00 in -DZ
03:30 66.7 °F 64.9 °F 29.81 in Calm   1.0 mph 94% 0.00 in -DZ
03:45 66.6 °F 64.8 °F 29.81 in Calm     94% 0.00 in -DZ
04:00 66.5 °F 65.0 °F 29.81 in Calm     95% 0.00 in -DZ
04:15 66.3 °F 64.8 °F 29.82 in Calm     95% 0.00 in BKN
04:30 66.4 °F 64.9 °F 29.83 in Calm   1.0 mph 95% 0.00 in BKN
04:45 66.4 °F 64.9 °F 29.83 in Calm     95% 0.00 in BKN
05:00 66.5 °F 65.0 °F 29.83 in Calm     95% 0.00 in BKN
05:30 66.4 °F 64.9 °F 29.82 in Calm     95% 0.00 in BKN
05:45 66.3 °F 64.8 °F 29.82 in Calm   1.0 mph 95% 0.00 in BKN
06:00 66.2 °F 64.7 °F 29.82 in Calm     95% 0.00 in BKN
06:15 66.4 °F 64.9 °F 29.83 in Calm   2.0 mph 95% 0.03 in RA
06:30 66.5 °F 65.3 °F 29.84 in Calm   1.0 mph 96% 0.04 in RA
06:45 66.5 °F 65.3 °F 29.83 in Calm   2.0 mph 96% 0.00 in BKN
07:00 66.7 °F 65.5 °F 29.84 in Calm   1.0 mph 96% 0.00 in BKN
07:15 66.7 °F 65.5 °F 29.84 in Calm   2.0 mph 96% 0.00 in -DZ
07:45 66.9 °F 65.7 °F 29.84 in Calm     96% 0.00 in -DZ
08:00 67.0 °F 65.8 °F 29.85 in Calm     96% 0.01 in -DZ
08:15 67.1 °F 65.9 °F 29.85 in Calm   1.0 mph 96% 0.01 in RA
08:30 67.0 °F 65.8 °F 29.84 in Calm   2.0 mph 96% 0.01 in BKN
08:45 66.9 °F 65.8 °F 29.84 in Calm   3.0 mph 96% 0.00 in BKN
09:00 67.1 °F 66.2 °F 29.85 in Calm   3.0 mph 97% 0.01 in RA
09:15 67.2 °F 66.0 °F 29.85 in Calm   4.0 mph 96% 0.00 in -RA
09:30 67.3 °F 66.2 °F 29.86 in West 1.0 mph 3.0 mph 96% 0.00 in -RA
09:45 67.0 °F 65.8 °F 29.89 in NNW 3.0 mph 6.0 mph 96% 0.00 in -RA
10:00 64.7 °F 62.9 °F 29.90 in Calm   10.0 mph 94% 0.00 in -RA
10:15 63.8 °F 62.0 °F 29.89 in Calm   12.0 mph 94% 0.00 in BKN
10:30 62.5 °F 60.7 °F 29.89 in NNW 2.0 mph 8.0 mph 94% 0.00 in BKN
10:45 61.7 °F 60.0 °F 29.90 in North 2.0 mph 6.0 mph 94% 0.00 in BKN
11:00 61.1 °F 59.4 °F 29.90 in NNW 1.0 mph 7.0 mph 94% 0.00 in BKN
11:15 60.8 °F 59.1 °F 29.90 in NNE 1.0 mph 10.0 mph 94% 0.00 in -RA
11:30 60.6 °F 58.6 °F 29.90 in North 2.0 mph 7.0 mph 93% 0.00 in -RA
11:45 60.9 °F 58.9 °F 29.89 in NNW 2.0 mph 5.0 mph 93% 0.00 in -RA
12:00 60.9 °F 58.6 °F 29.89 in NW 1.0 mph 8.0 mph 92% 0.01 in -RA
12:15 60.8 °F 58.4 °F 29.89 in North 2.0 mph 5.0 mph 92% 0.00 in OVC
12:30 60.8 °F 58.5 °F 29.89 in NW 1.0 mph 9.0 mph 92% 0.00 in OVC
12:45 60.8 °F 58.5 °F 29.89 in NNW 1.0 mph 5.0 mph 92% 0.00 in OVC
13:00 60.8 °F 58.5 °F 29.89 in Calm   5.0 mph 92% 0.00 in OVC
13:15 61.1 °F 58.8 °F 29.90 in Calm   3.0 mph 92% 0.00 in OVC
13:30 60.7 °F 58.4 °F 29.90 in North 1.0 mph 5.0 mph 92% 0.01 in RA
13:45 60.6 °F 58.6 °F 29.90 in NNW 1.0 mph 4.0 mph 93% 0.01 in RA
14:00 60.8 °F 59.0 °F 29.89 in WNW 1.0 mph 4.0 mph 94% 0.00 in OVC
14:15 60.8 °F 59.1 °F 29.89 in Calm   5.0 mph 94% 0.00 in -RA
14:30 61.0 °F 59.3 °F 29.89 in Calm   6.0 mph 94% 0.00 in -RA
14:45 61.1 °F 59.4 °F 29.89 in Calm   3.0 mph 94% 0.01 in -RA
15:15 61.3 °F 59.9 °F 29.89 in Calm   4.0 mph 95% 0.00 in OVC
15:30 61.4 °F 60.0 °F 29.88 in NW 1.0 mph 4.0 mph 95% 0.00 in OVC
15:45 61.2 °F 59.8 °F 29.89 in North 1.0 mph 6.0 mph 95% 0.01 in OVC
16:00 60.9 °F 59.5 °F 29.90 in Calm   10.0 mph 95% 0.00 in OVC
16:15 60.6 °F 59.5 °F 29.90 in NNW 1.0 mph 10.0 mph 96% 0.01 in -RA
16:30 60.6 °F 59.2 °F 29.90 in North 2.0 mph 12.0 mph 95% 0.00 in -RA
16:45 60.3 °F 58.9 °F 29.90 in Calm   5.0 mph 95% 0.00 in -RA
17:00 60.1 °F 58.7 °F 29.90 in North 1.0 mph 5.0 mph 95% 0.00 in -RA
17:15 60.0 °F 58.6 °F 29.91 in North 1.0 mph 6.0 mph 95% 0.00 in OVC
17:30 60.1 °F 58.7 °F 29.92 in NNE 1.0 mph 8.0 mph 95% 0.00 in OVC
17:45 60.3 °F 58.9 °F 29.91 in Calm   7.0 mph 95% 0.00 in OVC
18:00 60.0 °F 58.3 °F 29.91 in ENE 1.0 mph 7.0 mph 94% 0.01 in RA
18:15 59.8 °F 58.1 °F 29.90 in WNW 1.0 mph 5.0 mph 94% 0.00 in -RA
18:30 59.7 °F 58.0 °F 29.89 in Calm   6.0 mph 94% 0.01 in -RA
18:45 59.9 °F 58.2 °F 29.88 in Calm   4.0 mph 94% 0.00 in -RA
19:00 60.2 °F 58.4 °F 29.89 in Calm   3.0 mph 94% 0.00 in -RA
19:15 60.0 °F 58.6 °F 29.91 in Calm   4.0 mph 95% 0.00 in -RA
19:30 60.5 °F 59.0 °F 29.91 in NNE 1.0 mph 3.0 mph 95% 0.01 in -RA
19:45 60.6 °F 59.1 °F 29.90 in Calm   4.0 mph 95% 0.00 in -RA
20:00 60.4 °F 59.0 °F 29.90 in Calm   2.0 mph 95% 0.00 in -RA
20:15 60.1 °F 58.7 °F 29.90 in Calm   1.0 mph 95% 0.00 in OVC
20:30 60.0 °F 58.9 °F 29.91 in Calm   1.0 mph 96% 0.00 in OVC
20:45 59.9 °F 58.8 °F 29.90 in Calm   1.0 mph 96% 0.00 in OVC
21:00 59.8 °F 58.7 °F 29.91 in Calm   1.0 mph 96% 0.03 in RA
21:30 59.6 °F 58.5 °F 29.90 in Calm   4.0 mph 96% 0.05 in RA
21:45 59.8 °F 58.9 °F 29.90 in Calm   3.0 mph 97% 0.04 in RA
22:00 59.9 °F 59.1 °F 29.89 in Calm   4.0 mph 97% 0.02 in RA
22:15 59.9 °F 59.0 °F 29.88 in NNW 1.0 mph 5.0 mph 97% 0.02 in RA
22:30 59.5 °F 58.6 °F 29.88 in Calm   3.0 mph 97% 0.02 in RA
22:45 59.4 °F 58.5 °F 29.89 in Calm   3.0 mph 97% 0.02 in RA
23:00 59.3 °F 58.5 °F 29.90 in Calm   1.0 mph 97% 0.04 in RA
23:30 59.3 °F 58.4 °F 29.88 in Calm   1.0 mph 97% 0.02 in RA
23:45 59.3 °F 58.4 °F 29.88 in Calm   1.0 mph 97% 0.01 in RA
TarryTown NY Weather
Compliments of Weather Underground - 1.5 mb